KSVC/SVC METAR and TAF weather

Enter ICAO airport designator
Station Type Date Time Source
KSVC METAR 2019/10/22 16:15 UTC NOAA

KSVC 221615Z AUTO 22004KT 10SM CLR 16/M08 A3032 RMK AO2 T01621085


Station Type Date Time Source
KSVC Decoded METAR 2019/10/22 16:15 UTC NOAA

Silver City / Grant, NM, United States (KSVC) 32-38N 108-09W
Oct 22, 2019 - 12:15 PM EDT / 2019.10.22 1615 UTC
Wind: from the SW (220 degrees) at 5 MPH (4 KT):0
Visibility: 10 mile(s):0
Sky conditions: clear
Temperature: 61.2 F (16.2 C)
Dew Point: 16.7 F (-8.5 C)
Relative Humidity: 17%
Pressure (altimeter): 30.32 in. Hg (1026 hPa)
ob: KSVC 221615Z AUTO 22004KT 10SM CLR 16/M08 A3032 RMK AO2 T01621085
cycle: 16

Station Type Date Time Source
KSVC TAF UTC NOAA

Error!

Example: see airport list